Woodlawn Park, Indiana
Current Conditions -  °F | °C
As of 1:53 PM on Sunday 23 Nov 2014 (Local Time) from KMIE Reporting Station
Light Rain Light Rain  
Wind Chill: 57°   Ceiling: 4400
Heat Index: 57°   Visibility: 8mi
Dew Point: 49°   Wind: 14mph
Humidity: 74%   Direction: 170°S
Pressure: 29.68"   Gusts: 20mph
Location:  40.2763°N, 85.3769°W
Report Text: KMIE 231853Z 17012G17KT 8SM -RA BKN044 OVC065 14/09 A2968 RMK AO2 RAB11 SLP046 P0000 T01390094
Loading
Personal Weather Stations






























Interactive Weather Map New forecast layout! Learn more

10-Day Weather Forecast

Advertisements
Track Severe Weather on mobile